Flight Track Log - Related Links

Times and Time Zones

All times are in EDT time to prevent confusion due to time zone crossing. See the UAL4543 flight status page for this flight to view local times or setup timezone preferences in your user account.

Time Position Orientation Groundspeed Altitude Reporting Facility
EDT Latitude Longitude Course Direction KTS MPH feet Rate Location/Type
Tue 09:25:58 PM 40.7333 -74.1500 288° West 183 211 2,500  Level New York TRACON
Tue 09:26:59 PM 40.7500 -74.2167 288° West 261 300 5,000 2,826 Climbing New York TRACON
Tue 09:27:59 PM 40.7667 -74.3167 282° West 265 305 8,200 2,850 Climbing New York TRACON
Tue 09:28:00 PM 40.7918 -74.6383 284° West  Level FlightAware Approximate
Tue 09:28:59 PM 40.7833 -74.4000 285° West 278 320 10,700  Level New York TRACON
Tue 09:29:00 PM 40.8175 -74.7590 287° West  Level FlightAware Approximate
Tue 09:29:59 PM 40.8000 -74.5167 281° West 323 372 12,300  Level New York TRACON
Tue 09:30:00 PM 40.8452 -74.8791 287° West  Level FlightAware Approximate
Tue 09:30:59 PM 40.8333 -74.6333 291° West 340 391 14,400  Level New York TRACON
Tue 09:31:00 PM 40.8739 -74.9956 288° West  Level FlightAware Approximate
Tue 09:32:02 PM 40.8483 -74.7597 279° West 357 411 16,200  Level New York Center
Tue 09:33:03 PM 40.8706 -74.9036 282° West 357 411 17,900 1,488 Climbing New York Center
Tue 09:34:03 PM 40.8539 -75.0206 259° West 357 411 19,200 1,686 Climbing New York Center
Tue 09:35:04 PM 40.8367 -75.1486 260° West 357 411 21,300 2,016 Climbing New York Center
Tue 09:36:05 PM 40.8128 -75.2842 257° West 372 428 23,300 2,017 Climbing New York Center
Tue 09:37:03 PM 40.7908 -75.4197 258° West 377 434 25,300 1,765 Climbing New York Center
Tue 09:38:04 PM 40.7706 -75.5636 260° West 377 434 26,800 1,328 Climbing New York Center
Tue 09:39:05 PM 40.7486 -75.6961 258° West 377 434 28,000 1,190 Climbing New York Center
Tue 09:40:05 PM 40.7281 -75.8344 259° West 377 434 29,200 1,627 Climbing New York Center
Tue 09:41:03 PM 40.7078 -75.9642 258° West 377 434 31,200 1,983 Climbing New York Center
Tue 09:42:03 PM 40.6900 -76.0861 259° West 361 415 33,100 1,672 Climbing New York Center
Tue 09:43:05 PM 40.6719 -76.2050 259° West 349 402 34,600 1,150 Climbing New York Center
Tue 09:44:03 PM 40.6728 -76.3203 271° West 330 380 35,400 403 Climbing New York Center
Tue 09:45:04 PM 40.6944 -76.4397 283° West 322 371 35,400 -496 Level New York Center
Tue 09:46:04 PM 40.7111 -76.5642 280° West 336 387 34,400 -706 Descending New York Center
Tue 09:47:03 PM 40.7319 -76.6947 282° West 348 400 34,000 -202 Descending New York Center
Tue 09:48:03 PM 40.7503 -76.8225 281° West 353 406 34,000  Level New York Center
Tue 09:49:05 PM 40.7706 -76.9556 281° West 358 412 34,000  Level New York Center
Tue 09:50:05 PM 40.7889 -77.0836 281° West 363 418 34,000  Level New York Center
Tue 09:51:03 PM 40.8069 -77.2114 281° West 363 418 34,000 50 Level New York Center
Tue 09:52:05 PM 40.8250 -77.3392 281° West 358 412 34,100  Climbing New York Center
Tue 09:53:03 PM 40.8433 -77.4561 282° West 358 412 34,000 -32 Descending New York Center
Tue 09:55:14 PM 40.8828 -77.7569 280° West 380 437 34,000  Level Cleveland Center
Tue 09:56:14 PM 40.9028 -77.8964 281° West 385 443 34,000  Level Cleveland Center
Tue 09:57:14 PM 40.9206 -78.0383 279° West 391 450 34,000  Level Cleveland Center
Tue 09:58:14 PM 40.9383 -78.1753 280° West 391 450 34,000  Level Cleveland Center
Tue 09:59:14 PM 40.9558 -78.3203 279° West 391 450 34,000  Level Cleveland Center
Tue 10:00:14 PM 40.9750 -78.4600 280° West 391 450 34,000  Level Cleveland Center
Tue 10:01:14 PM 40.9922 -78.5997 279° West 386 444 34,000  Level Cleveland Center
Tue 10:02:14 PM 41.0092 -78.7422 279° West 386 444 34,000  Level Cleveland Center
Tue 10:03:14 PM 41.0239 -78.8822 278° West 386 444 34,000  Level Cleveland Center
Tue 10:04:14 PM 41.0406 -79.0250 279° West 386 444 34,000  Level Cleveland Center
Tue 10:05:14 PM 41.0569 -79.1650 279° West 386 444 34,000  Level Cleveland Center
Tue 10:06:14 PM 41.0733 -79.3106 279° West 392 451 34,000  Level Cleveland Center
Tue 10:07:14 PM 41.0892 -79.4508 279° West 392 451 34,000  Level Cleveland Center
Tue 10:08:14 PM 41.1053 -79.5911 279° West 392 451 34,000  Level Cleveland Center
Tue 10:09:14 PM 41.1208 -79.7314 278° West 392 451 34,000  Level Cleveland Center
Tue 10:10:14 PM 41.1367 -79.8911 278° West 387 445 34,000  Level Cleveland Center
Tue 10:11:14 PM 41.1519 -80.0150 279° West 387 445 34,000  Level Cleveland Center
Tue 10:12:14 PM 41.1669 -80.1528 278° West 387 445 34,000  Level Cleveland Center
Tue 10:13:14 PM 41.1800 -80.2933 277° West 387 445 34,000  Level Cleveland Center
Tue 10:14:14 PM 41.1947 -80.4397 278° West 387 445 34,000  Level Cleveland Center
Tue 10:15:14 PM 41.2075 -80.5803 277° West 392 451 34,000  Level Cleveland Center
Tue 10:16:14 PM 41.2219 -80.7239 278° West 392 451 34,000  Level Cleveland Center
Tue 10:17:14 PM 41.2364 -80.8647 278° West 391 450 34,000  Level Cleveland Center
Tue 10:18:14 PM 41.2506 -81.0083 278° West 391 450 34,000  Level Cleveland Center
Tue 10:19:14 PM 41.2644 -81.1494 278° West 391 450 34,000  Level Cleveland Center
Tue 10:20:14 PM 41.2803 -81.3069 278° West 391 450 34,000  Level Cleveland Center
Tue 10:21:14 PM 41.2939 -81.4289 278° West 391 450 34,000 50 Level Cleveland Center
Tue 10:22:14 PM 41.3094 -81.5894 277° West 391 450 34,100  Climbing Cleveland Center
Tue 10:23:14 PM 41.3206 -81.7306 276° West 391 450 34,000  Descending Cleveland Center
Tue 10:24:14 PM 41.3336 -81.8717 277° West 391 450 34,100  Climbing Cleveland Center
Tue 10:25:14 PM 41.3464 -82.0158 277° West 391 450 34,000 -50 Descending Cleveland Center
Tue 10:26:14 PM 41.3553 -82.1461 275° West 391 450 34,000  Level Cleveland Center
Tue 10:27:14 PM 41.3636 -82.2875 275° West 383 441 34,000 50 Level Cleveland Center
Tue 10:28:14 PM 41.3736 -82.4397 275° West 378 435 34,100  Climbing Cleveland Center
Tue 10:29:14 PM 41.3797 -82.5728 274° West 372 428 34,000  Descending Cleveland Center
Tue 10:30:14 PM 41.3878 -82.7086 275° West 372 428 34,100  Climbing Cleveland Center
Tue 10:31:14 PM 41.3956 -82.8447 274° West 367 422 34,000  Descending Cleveland Center
Tue 10:32:14 PM 41.4031 -82.9861 274° West 372 428 34,100 700 Climbing Cleveland Center
Tue 10:33:14 PM 41.4106 -83.1192 274° West 372 428 35,400 950 Climbing Cleveland Center
Tue 10:34:14 PM 41.4161 -83.2497 273° West 367 422 36,000 300 Climbing Cleveland Center
Tue 10:35:14 PM 41.4231 -83.3883 274° West 367 422 36,000  Level Cleveland Center
Tue 10:36:14 PM 41.4300 -83.5272 274° West 373 429 36,000  Level Cleveland Center
Tue 10:37:14 PM 41.4369 -83.6661 274° West 379 436 36,000  Level Cleveland Center
Tue 10:38:14 PM 41.4433 -83.8050 274° West 379 436 36,000  Level Cleveland Center
Tue 10:39:14 PM 41.4478 -83.9408 273° West 379 436 36,000  Level Cleveland Center
Tue 10:40:14 PM 41.4542 -84.0797 274° West 379 436 36,000  Level Cleveland Center
Tue 10:41:14 PM 41.4603 -84.2158 273° West 379 436 36,000  Level Cleveland Center
Tue 10:42:14 PM 41.4689 -84.3383 275° West 373 429 36,000  Level Cleveland Center
Tue 10:44:44 PM 41.4814 -84.6661 273° West 370 426 36,000  Level Chicago Center
Tue 10:45:45 PM 41.4881 -84.8289 273° West 368 423 36,000  Level Chicago Center
Tue 10:46:47 PM 41.4925 -84.9631 273° West 364 419 36,000  Level Chicago Center
Tue 10:47:48 PM 41.4969 -85.0989 273° West 366 421 36,000  Level Chicago Center
Tue 10:48:49 PM 41.5014 -85.2350 273° West 365 420 36,000  Level Chicago Center
Tue 10:49:51 PM 41.5058 -85.3736 272° West 367 422 36,000  Level Chicago Center
Tue 10:50:52 PM 41.5097 -85.5119 272° West 366 421 36,000  Level Chicago Center
Tue 10:51:53 PM 41.5142 -85.6458 273° West 359 413 36,000  Level Chicago Center
Tue 10:52:55 PM 41.5178 -85.7792 272° West 358 412 36,000  Level Chicago Center
Tue 10:53:56 PM 41.5214 -85.9125 272° West 358 412 36,000  Level Chicago Center
Tue 10:54:57 PM 41.5250 -86.0456 272° West 359 413 36,000  Level Chicago Center
Tue 10:55:59 PM 41.5275 -86.1781 271° West 358 412 36,000  Level Chicago Center
Tue 10:57:00 PM 41.5297 -86.3108 271° West 358 412 36,000  Level Chicago Center
Tue 10:58:01 PM 41.5333 -86.4717 272° West 359 413 36,000  Level Chicago Center
Tue 10:59:02 PM 41.5347 -86.6061 271° West 362 417 36,000  Level Chicago Center
Tue 11:00:04 PM 41.5369 -86.7306 271° West 361 415 36,000  Level Chicago Center
Tue 11:01:05 PM 41.5375 -86.8636 270° West 360 414 36,000  Level Chicago Center
Tue 11:02:06 PM 41.5389 -86.9981 271° West 363 418 36,000  Level Chicago Center
Tue 11:03:07 PM 41.5408 -87.1572 271° West 361 415 36,000  Level Chicago Center
Tue 11:04:09 PM 41.5425 -87.2911 271° West 362 417 36,000  Level Chicago Center
Tue 11:05:10 PM 41.5428 -87.4253 270° West 363 418 36,000  Level Chicago Center
Tue 11:06:11 PM 41.5444 -87.5575 271° West 362 417 36,000  Level Chicago Center
Tue 11:07:12 PM 41.5447 -87.6922 270° West 365 420 36,000  Level Chicago Center
Tue 11:08:13 PM 41.5453 -87.8242 270° West 361 415 36,000  Level Chicago Center
Tue 11:09:14 PM 41.5456 -87.9556 270° West 361 415 36,000  Level Chicago Center
Tue 11:10:16 PM 41.5467 -88.1106 271° West 361 415 36,000  Level Chicago Center
Tue 11:11:17 PM 41.5467 -88.2406 270° West 360 414 36,000  Level Chicago Center
Tue 11:12:18 PM 41.5467 -88.3703 270° West 356 410 36,000  Level Chicago Center
Tue 11:13:19 PM 41.5472 -88.5011 270° West 356 410 36,000  Level Chicago Center
Tue 11:14:20 PM 41.5475 -88.6311 270° West 355 409 36,000  Level Chicago Center
Tue 11:15:21 PM 41.5481 -88.7614 270° West 353 406 36,000  Level Chicago Center
Tue 11:16:22 PM 41.5478 -88.8939 270° West 358 412 36,000  Level Chicago Center
Tue 11:17:23 PM 41.5486 -89.0475 270° West 348 400 36,000  Level Chicago Center
Tue 11:18:24 PM 41.5483 -89.1775 270° West 352 405 36,000  Level Chicago Center
Tue 11:19:26 PM 41.5483 -89.3069 270° West 351 404 36,000  Level Chicago Center
Tue 11:20:27 PM 41.5514 -89.4356 272° West 350 403 36,000  Level Chicago Center
Tue 11:21:28 PM 41.5533 -89.5675 271° West 349 402 36,000  Level Chicago Center
Tue 11:22:29 PM 41.5550 -89.6958 271° West 348 400 36,000  Level Chicago Center
Tue 11:23:30 PM 41.5567 -89.8239 271° West 347 399 36,000  Level Chicago Center
Tue 11:24:31 PM 41.5594 -89.9500 272° West 343 395 36,000  Level Chicago Center
Tue 11:25:32 PM 41.5603 -90.0781 271° West 345 397 36,000  Level Chicago Center
Tue 11:26:33 PM 41.5608 -90.2036 270° West 341 392 36,000  Level Chicago Center
Tue 11:27:34 PM 41.5606 -90.3322 270° West 347 399 36,000  Level Chicago Center
Tue 11:28:36 PM 41.5622 -90.4542 271° West 334 384 36,000  Level Chicago Center
Tue 11:29:37 PM 41.5631 -90.6039 270° West 337 388 36,000  Level Chicago Center
Tue 11:30:38 PM 41.5633 -90.7225 270° West 337 388 36,000  Level Chicago Center
Tue 11:31:39 PM 41.5633 -90.8472 270° West 338 389 36,000  Level Chicago Center
Tue 11:32:40 PM 41.5628 -90.9753 270° West 344 396 36,000  Level Chicago Center
Tue 11:33:41 PM 41.5633 -91.0994 270° West 338 389 36,000  Level Chicago Center
Tue 11:34:42 PM 41.5631 -91.2264 270° West 342 394 36,000  Level Chicago Center
Tue 11:35:43 PM 41.5633 -91.3531 270° West 343 395 36,000  Level Chicago Center
Tue 11:36:44 PM 41.5636 -91.5019 270° West 338 389 36,000  Level Chicago Center
Tue 11:37:46 PM 41.5617 -91.6272 269° West 339 390 36,000  Level Chicago Center
Tue 11:38:47 PM 41.5617 -91.7456 270° West 328 377 36,000 -787 Level Chicago Center
Tue 11:39:48 PM 41.5608 -91.8658 270° West 325 374 34,400 -2,459 Descending Chicago Center
Tue 11:40:49 PM 41.5597 -91.9825 269° West 318 366 31,000 -3,148 Descending Chicago Center
Tue 11:41:50 PM 41.5594 -92.0958 270° West 310 357 28,000 -2,951 Descending Chicago Center
Tue 11:42:51 PM 41.5583 -92.2119 269° West 313 360 25,000 -3,000 Descending Chicago Center
Tue 11:43:52 PM 41.5564 -92.3256 269° West 309 356 21,900 -2,926 Descending Chicago Center
Tue 11:44:52 PM 41.5550 -92.4411 269° West 312 359 19,100 -2,380 Descending Chicago Center
Tue 11:45:53 PM 41.5533 -92.5594 269° West 318 366 17,100 -2,039 Descending Chicago Center
Tue 11:46:35 PM 41.5511 -92.6639 268° West 331 381 15,600 -1,922 Descending Minneapolis Center
Tue 11:47:36 PM 41.5408 -92.7956 264° West 333 383 13,800 -1,820 Descending Minneapolis Center
Tue 11:48:37 PM 41.5322 -92.9156 265° West 328 377 11,900 -1,623 Descending Minneapolis Center
Tue 11:49:38 PM 41.5253 -93.0219 265° West 290 334 10,500 -1,750 Descending Minneapolis Center
Tue 11:50:13 PM 41.5253 -93.0731 270° West 276 318 9,100 -2,262 Descending Minneapolis Center
Tue 11:50:39 PM 41.5169 -93.1200 257° West 270 311 8,200 -2,200 Descending Minneapolis Center
Tue 11:51:13 PM 41.5183 -93.1711 272° West 269 310 6,900 -2,000 Descending Minneapolis Center
Tue 11:51:39 PM 41.5100 -93.2192 257° West 269 310 6,200 -1,967 Descending Minneapolis Center
Tue 11:52:14 PM 41.5114 -93.2692 272° West 265 305 4,900 -1,770 Descending Minneapolis Center
Tue 11:52:40 PM 41.5022 -93.3142 255° West 261 300 4,400 -1,082 Descending Minneapolis Center
Tue 11:53:15 PM 41.5042 -93.3642 273° West 257 296 3,800 -984 Descending Minneapolis Center
Tue 11:53:41 PM 41.4950 -93.4136 256° West 252 290 3,400 -800 Descending Minneapolis Center
Tue 11:54:15 PM 41.4964 -93.4511 273° West 247 284 3,000 -393 Descending Minneapolis Center
Tue 11:54:42 PM 41.4889 -93.4997 258° West 237 273 3,000  Level Minneapolis Center

Login

Don't have an account? Register now (free) for customized features, flight alerts, and more!